CheckWX is a tool to help pilots better visualize weather data.  It is not intended as a substitute for an official pre-flight weather briefing.

02:26:52 UTC

KMGW METAR
Morgantown Municipal-Walter L Bill Hart Field Airport
Morgantown, West Virginia, USA
Current

34 mins ago

KMGW 250153Z 12009KT 6SM RA BR SCT031 OVC045 07/04 A2992 RMK AO2 SLP136 P0013 T00670044
Observed
Jan-25 @ 01:53 UTC
Wind
  • 120° at 9 KTS
Visibility
6 SM
Flight Rules
VFR
Conditions
Rain, Mist
Cloud Levels
  • Scattered at 3,100' AGL
  • Overcast at 4,500' AGL
Temperature
C / 45°F
Dewpoint
C / 39°F
Humidity
81%
Altimeter
29.92" Hg
Pressure
1013.22 hPa
Current Rain
0.13"
Previous

2 hours ago

KMGW 250053Z 14008KT 10SM -RA BKN038 BKN060 OVC070 07/04 A2993 RMK AO2 SLP140 P0005 T00720039
Observed
Jan-25 @ 00:53 UTC
Wind
  • 140° at 8 KTS
Visibility
10 SM
Flight Rules
VFR
Conditions
Light Rain
Cloud Levels
  • Broken at 3,800' AGL
  • Broken at 6,000' AGL
  • Overcast at 7,000' AGL
Temperature
C / 45°F
Dewpoint
C / 39°F
Humidity
81%
Altimeter
29.93" Hg
Pressure
1013.52 hPa
Current Rain
0.05"
Previous

3 hours ago

KMGW 242353Z 11007G17KT 10SM -RA OVC075 07/03 A2992 RMK AO2 SLP136 P0004 60009 T00670033 10100 20061 58001
Observed
Jan-24 @ 23:53 UTC
Wind
  • 110° at 7 KTS
  • Gusting to 17 KTS
Visibility
10 SM
Flight Rules
VFR
Conditions
Light Rain
Cloud Levels
  • Overcast at 7,500' AGL
Temperature
C / 45°F
Dewpoint
C / 37°F
Humidity
76%
Altimeter
29.92" Hg
Pressure
1013.22 hPa
Current Rain
0.04"